sensor_id;sensor_type;location;lat;lon;timestamp;P1;durP1;ratioP1;P2;durP2;ratioP2
54145;SDS011;40052;49.422;7.738;2022-07-21T00:00:22;23.67;;;18.55;;
54145;SDS011;40052;49.422;7.738;2022-07-21T00:02:50;23.33;;;17.85;;
54145;SDS011;40052;49.422;7.738;2022-07-21T00:05:16;23.38;;;17.73;;
54145;SDS011;40052;49.422;7.738;2022-07-21T00:07:42;25.38;;;18.25;;
54145;SDS011;40052;49.422;7.738;2022-07-21T00:10:08;22.38;;;17.25;;
54145;SDS011;40052;49.422;7.738;2022-07-21T00:12:38;24.70;;;17.52;;
54145;SDS011;40052;49.422;7.738;2022-07-21T00:15:07;23.08;;;17.42;;
54145;SDS011;40052;49.422;7.738;2022-07-21T00:17:33;20.48;;;16.92;;
54145;SDS011;40052;49.422;7.738;2022-07-21T00:20:01;24.58;;;17.70;;
54145;SDS011;40052;49.422;7.738;2022-07-21T00:22:27;21.15;;;16.60;;
54145;SDS011;40052;49.422;7.738;2022-07-21T00:24:55;24.90;;;18.90;;
54145;SDS011;40052;49.422;7.738;2022-07-21T00:27:23;23.30;;;17.55;;
54145;SDS011;40052;49.422;7.738;2022-07-21T00:29:49;29.92;;;19.05;;
54145;SDS011;40052;49.422;7.738;2022-07-21T00:32:17;22.45;;;18.17;;
54145;SDS011;40052;49.422;7.738;2022-07-21T00:34:45;24.02;;;17.98;;
54145;SDS011;40052;49.422;7.738;2022-07-21T00:37:10;21.80;;;17.38;;
54145;SDS011;40052;49.422;7.738;2022-07-21T00:39:38;20.85;;;16.20;;
54145;SDS011;40052;49.422;7.738;2022-07-21T00:42:04;21.80;;;17.30;;
54145;SDS011;40052;49.422;7.738;2022-07-21T00:44:30;22.92;;;15.43;;
54145;SDS011;40052;49.422;7.738;2022-07-21T00:46:56;18.13;;;14.77;;
54145;SDS011;40052;49.422;7.738;2022-07-21T00:49:21;19.85;;;15.10;;
54145;SDS011;40052;49.422;7.738;2022-07-21T00:51:47;21.92;;;16.15;;
54145;SDS011;40052;49.422;7.738;2022-07-21T00:54:17;20.25;;;15.32;;
54145;SDS011;40052;49.422;7.738;2022-07-21T00:56:50;20.23;;;14.95;;
54145;SDS011;40052;49.422;7.738;2022-07-21T00:59:18;16.92;;;14.00;;
54145;SDS011;40052;49.422;7.738;2022-07-21T01:01:44;20.00;;;14.25;;
54145;SDS011;40052;49.422;7.738;2022-07-21T01:04:12;16.38;;;14.13;;
54145;SDS011;40052;49.422;7.738;2022-07-21T01:06:37;15.93;;;13.60;;
54145;SDS011;40052;49.422;7.738;2022-07-21T01:09:05;17.25;;;14.13;;
54145;SDS011;40052;49.422;7.738;2022-07-21T01:11:31;20.10;;;14.52;;
54145;SDS011;40052;49.422;7.738;2022-07-21T01:13:58;20.02;;;14.82;;
54145;SDS011;40052;49.422;7.738;2022-07-21T01:16:24;19.88;;;14.35;;
54145;SDS011;40052;49.422;7.738;2022-07-21T01:18:52;19.20;;;14.32;;
54145;SDS011;40052;49.422;7.738;2022-07-21T01:21:36;18.75;;;14.85;;
54145;SDS011;40052;49.422;7.738;2022-07-21T01:24:07;19.67;;;15.90;;
54145;SDS011;40052;49.422;7.738;2022-07-21T01:26:42;17.85;;;14.52;;
54145;SDS011;40052;49.422;7.738;2022-07-21T01:29:10;21.45;;;16.23;;
54145;SDS011;40052;49.422;7.738;2022-07-21T01:31:39;20.63;;;15.98;;
54145;SDS011;40052;49.422;7.738;2022-07-21T01:34:13;25.40;;;17.23;;
54145;SDS011;40052;49.422;7.738;2022-07-21T01:36:38;22.67;;;16.58;;
54145;SDS011;40052;49.422;7.738;2022-07-21T01:39:08;21.80;;;16.20;;
54145;SDS011;40052;49.422;7.738;2022-07-21T01:41:55;19.67;;;16.38;;
54145;SDS011;40052;49.422;7.738;2022-07-21T01:44:21;24.63;;;17.38;;
54145;SDS011;40052;49.422;7.738;2022-07-21T01:46:49;23.48;;;16.95;;
54145;SDS011;40052;49.422;7.738;2022-07-21T01:49:19;25.83;;;17.67;;
54145;SDS011;40052;49.422;7.738;2022-07-21T01:51:48;26.00;;;18.13;;
54145;SDS011;40052;49.422;7.738;2022-07-21T01:54:15;21.10;;;17.50;;
54145;SDS011;40052;49.422;7.738;2022-07-21T01:56:48;23.95;;;16.98;;
54145;SDS011;40052;49.422;7.738;2022-07-21T01:59:17;22.98;;;16.38;;
54145;SDS011;40052;49.422;7.738;2022-07-21T02:01:45;21.25;;;16.70;;
54145;SDS011;40052;49.422;7.738;2022-07-21T02:04:11;24.67;;;18.50;;
54145;SDS011;40052;49.422;7.738;2022-07-21T02:06:37;22.52;;;16.95;;
54145;SDS011;40052;49.422;7.738;2022-07-21T02:09:03;23.58;;;16.70;;
54145;SDS011;40052;49.422;7.738;2022-07-21T02:11:28;23.00;;;15.88;;
54145;SDS011;40052;49.422;7.738;2022-07-21T02:13:54;23.15;;;17.42;;
54145;SDS011;40052;49.422;7.738;2022-07-21T02:16:20;22.42;;;17.58;;
54145;SDS011;40052;49.422;7.738;2022-07-21T02:18:48;20.88;;;15.80;;
54145;SDS011;40052;49.422;7.738;2022-07-21T02:21:13;19.77;;;15.48;;
54145;SDS011;40052;49.422;7.738;2022-07-21T02:23:41;22.67;;;15.30;;
54145;SDS011;40052;49.422;7.738;2022-07-21T02:26:11;20.35;;;15.10;;
54145;SDS011;40052;49.422;7.738;2022-07-21T02:28:36;21.38;;;15.43;;
54145;SDS011;40052;49.422;7.738;2022-07-21T02:31:05;19.13;;;14.32;;
54145;SDS011;40052;49.422;7.738;2022-07-21T02:33:33;19.25;;;14.30;;
54145;SDS011;40052;49.422;7.738;2022-07-21T02:36:03;20.95;;;15.95;;
54145;SDS011;40052;49.422;7.738;2022-07-21T02:38:28;19.55;;;14.77;;
54145;SDS011;40052;49.422;7.738;2022-07-21T02:40:54;18.15;;;14.00;;
54145;SDS011;40052;49.422;7.738;2022-07-21T02:43:26;18.05;;;14.45;;
54145;SDS011;40052;49.422;7.738;2022-07-21T02:45:56;16.48;;;13.88;;
54145;SDS011;40052;49.422;7.738;2022-07-21T02:48:27;20.08;;;15.52;;
54145;SDS011;40052;49.422;7.738;2022-07-21T02:50:53;18.40;;;14.45;;
54145;SDS011;40052;49.422;7.738;2022-07-21T02:53:19;20.70;;;15.18;;
54145;SDS011;40052;49.422;7.738;2022-07-21T02:55:45;21.80;;;15.38;;
54145;SDS011;40052;49.422;7.738;2022-07-21T02:58:19;21.42;;;13.85;;
54145;SDS011;40052;49.422;7.738;2022-07-21T03:00:52;18.35;;;14.10;;
54145;SDS011;40052;49.422;7.738;2022-07-21T03:03:19;18.73;;;14.10;;
54145;SDS011;40052;49.422;7.738;2022-07-21T03:05:45;19.27;;;15.00;;
54145;SDS011;40052;49.422;7.738;2022-07-21T03:08:11;21.35;;;14.27;;
54145;SDS011;40052;49.422;7.738;2022-07-21T03:10:36;21.08;;;14.75;;
54145;SDS011;40052;49.422;7.738;2022-07-21T03:13:03;21.23;;;15.10;;
54145;SDS011;40052;49.422;7.738;2022-07-21T03:15:31;18.05;;;14.40;;
54145;SDS011;40052;49.422;7.738;2022-07-21T03:18:00;18.95;;;14.38;;
54145;SDS011;40052;49.422;7.738;2022-07-21T03:20:26;18.70;;;13.93;;
54145;SDS011;40052;49.422;7.738;2022-07-21T03:22:55;17.00;;;13.77;;
54145;SDS011;40052;49.422;7.738;2022-07-21T03:25:21;17.80;;;13.77;;
54145;SDS011;40052;49.422;7.738;2022-07-21T03:27:47;18.23;;;13.70;;
54145;SDS011;40052;49.422;7.738;2022-07-21T03:30:16;16.30;;;13.15;;
54145;SDS011;40052;49.422;7.738;2022-07-21T03:32:42;18.75;;;14.05;;
54145;SDS011;40052;49.422;7.738;2022-07-21T03:35:09;19.63;;;13.35;;
54145;SDS011;40052;49.422;7.738;2022-07-21T03:40:08;19.98;;;13.77;;
54145;SDS011;40052;49.422;7.738;2022-07-21T03:42:35;17.63;;;12.98;;
54145;SDS011;40052;49.422;7.738;2022-07-21T03:45:00;15.63;;;12.23;;
54145;SDS011;40052;49.422;7.738;2022-07-21T03:47:28;19.45;;;13.52;;
54145;SDS011;40052;49.422;7.738;2022-07-21T03:49:53;17.80;;;13.18;;
54145;SDS011;40052;49.422;7.738;2022-07-21T03:52:18;15.52;;;12.38;;
54145;SDS011;40052;49.422;7.738;2022-07-21T03:54:44;16.40;;;12.40;;
54145;SDS011;40052;49.422;7.738;2022-07-21T03:57:14;19.35;;;13.75;;
54145;SDS011;40052;49.422;7.738;2022-07-21T03:59:42;19.40;;;14.15;;
54145;SDS011;40052;49.422;7.738;2022-07-21T04:02:07;16.67;;;13.50;;
54145;SDS011;40052;49.422;7.738;2022-07-21T04:04:35;18.58;;;14.13;;
54145;SDS011;40052;49.422;7.738;2022-07-21T04:07:05;17.27;;;12.75;;
54145;SDS011;40052;49.422;7.738;2022-07-21T04:09:35;18.90;;;14.40;;
54145;SDS011;40052;49.422;7.738;2022-07-21T04:12:01;17.02;;;13.52;;
54145;SDS011;40052;49.422;7.738;2022-07-21T04:14:28;17.77;;;13.65;;
54145;SDS011;40052;49.422;7.738;2022-07-21T04:16:56;21.05;;;14.82;;
54145;SDS011;40052;49.422;7.738;2022-07-21T04:19:21;18.40;;;13.75;;
54145;SDS011;40052;49.422;7.738;2022-07-21T04:21:46;18.85;;;14.18;;
54145;SDS011;40052;49.422;7.738;2022-07-21T04:24:12;18.48;;;14.63;;
54145;SDS011;40052;49.422;7.738;2022-07-21T04:26:40;20.20;;;14.38;;
54145;SDS011;40052;49.422;7.738;2022-07-21T04:29:05;21.40;;;14.77;;
54145;SDS011;40052;49.422;7.738;2022-07-21T04:31:32;17.30;;;13.60;;
54145;SDS011;40052;49.422;7.738;2022-07-21T04:33:57;18.80;;;14.30;;
54145;SDS011;40052;49.422;7.738;2022-07-21T04:36:28;18.58;;;13.93;;
54145;SDS011;40052;49.422;7.738;2022-07-21T04:38:55;19.63;;;13.90;;
54145;SDS011;40052;49.422;7.738;2022-07-21T04:41:21;24.67;;;15.55;;
54145;SDS011;40052;49.422;7.738;2022-07-21T04:43:46;20.00;;;15.35;;
54145;SDS011;40052;49.422;7.738;2022-07-21T04:46:11;19.65;;;14.75;;
54145;SDS011;40052;49.422;7.738;2022-07-21T04:48:37;19.50;;;13.63;;
54145;SDS011;40052;49.422;7.738;2022-07-21T04:51:04;17.95;;;13.57;;
54145;SDS011;40052;49.422;7.738;2022-07-21T04:53:35;19.00;;;13.48;;
54145;SDS011;40052;49.422;7.738;2022-07-21T04:56:00;18.95;;;13.25;;
54145;SDS011;40052;49.422;7.738;2022-07-21T04:58:26;18.90;;;13.43;;
54145;SDS011;40052;49.422;7.738;2022-07-21T05:00:51;18.35;;;12.70;;
54145;SDS011;40052;49.422;7.738;2022-07-21T05:03:19;18.35;;;12.95;;
54145;SDS011;40052;49.422;7.738;2022-07-21T05:05:44;17.10;;;12.73;;
54145;SDS011;40052;49.422;7.738;2022-07-21T05:08:11;20.48;;;14.65;;
54145;SDS011;40052;49.422;7.738;2022-07-21T05:10:37;17.85;;;13.90;;
54145;SDS011;40052;49.422;7.738;2022-07-21T05:13:05;18.08;;;13.68;;
54145;SDS011;40052;49.422;7.738;2022-07-21T05:15:30;17.65;;;13.48;;
54145;SDS011;40052;49.422;7.738;2022-07-21T05:17:56;15.68;;;12.48;;
54145;SDS011;40052;49.422;7.738;2022-07-21T05:20:23;16.35;;;13.35;;
54145;SDS011;40052;49.422;7.738;2022-07-21T05:22:49;19.65;;;12.85;;
54145;SDS011;40052;49.422;7.738;2022-07-21T05:25:14;16.02;;;11.50;;
54145;SDS011;40052;49.422;7.738;2022-07-21T05:27:42;16.00;;;12.23;;
54145;SDS011;40052;49.422;7.738;2022-07-21T05:30:10;15.40;;;11.48;;
54145;SDS011;40052;49.422;7.738;2022-07-21T05:32:35;15.75;;;12.57;;
54145;SDS011;40052;49.422;7.738;2022-07-21T05:35:03;15.88;;;12.27;;
54145;SDS011;40052;49.422;7.738;2022-07-21T05:37:35;19.95;;;12.32;;
54145;SDS011;40052;49.422;7.738;2022-07-21T05:40:01;15.20;;;11.85;;
54145;SDS011;40052;49.422;7.738;2022-07-21T05:42:32;14.60;;;11.93;;
54145;SDS011;40052;49.422;7.738;2022-07-21T05:44:57;17.05;;;11.98;;
54145;SDS011;40052;49.422;7.738;2022-07-21T05:47:26;15.90;;;10.85;;
54145;SDS011;40052;49.422;7.738;2022-07-21T05:49:51;17.40;;;11.52;;
54145;SDS011;40052;49.422;7.738;2022-07-21T05:52:16;18.10;;;11.43;;
54145;SDS011;40052;49.422;7.738;2022-07-21T05:54:46;15.63;;;11.85;;
54145;SDS011;40052;49.422;7.738;2022-07-21T05:57:12;14.77;;;11.75;;
54145;SDS011;40052;49.422;7.738;2022-07-21T05:59:37;16.10;;;11.13;;
54145;SDS011;40052;49.422;7.738;2022-07-21T06:02:05;15.68;;;11.27;;
54145;SDS011;40052;49.422;7.738;2022-07-21T06:04:33;14.00;;;10.07;;
54145;SDS011;40052;49.422;7.738;2022-07-21T06:07:01;12.48;;;10.32;;
54145;SDS011;40052;49.422;7.738;2022-07-21T06:09:29;16.02;;;10.43;;
54145;SDS011;40052;49.422;7.738;2022-07-21T06:11:54;14.15;;;9.77;;
54145;SDS011;40052;49.422;7.738;2022-07-21T06:14:20;13.82;;;9.50;;
54145;SDS011;40052;49.422;7.738;2022-07-21T06:16:45;14.60;;;9.88;;
54145;SDS011;40052;49.422;7.738;2022-07-21T06:19:11;15.30;;;9.68;;
54145;SDS011;40052;49.422;7.738;2022-07-21T06:21:39;13.80;;;9.85;;
54145;SDS011;40052;49.422;7.738;2022-07-21T06:24:06;14.65;;;10.15;;
54145;SDS011;40052;49.422;7.738;2022-07-21T06:26:31;13.48;;;9.32;;
54145;SDS011;40052;49.422;7.738;2022-07-21T06:28:59;13.82;;;9.85;;
54145;SDS011;40052;49.422;7.738;2022-07-21T06:31:25;14.40;;;9.65;;
54145;SDS011;40052;49.422;7.738;2022-07-21T06:33:53;15.05;;;9.90;;
54145;SDS011;40052;49.422;7.738;2022-07-21T06:36:19;13.80;;;9.48;;
54145;SDS011;40052;49.422;7.738;2022-07-21T06:38:46;12.13;;;9.07;;
54145;SDS011;40052;49.422;7.738;2022-07-21T06:41:14;11.57;;;9.57;;
54145;SDS011;40052;49.422;7.738;2022-07-21T06:43:39;12.88;;;8.93;;
54145;SDS011;40052;49.422;7.738;2022-07-21T06:46:07;15.80;;;9.50;;
54145;SDS011;40052;49.422;7.738;2022-07-21T06:48:32;16.10;;;10.40;;
54145;SDS011;40052;49.422;7.738;2022-07-21T06:51:00;13.35;;;9.90;;
54145;SDS011;40052;49.422;7.738;2022-07-21T06:53:28;11.38;;;9.13;;
54145;SDS011;40052;49.422;7.738;2022-07-21T06:55:58;11.98;;;10.18;;
54145;SDS011;40052;49.422;7.738;2022-07-21T06:58:26;13.05;;;9.00;;
54145;SDS011;40052;49.422;7.738;2022-07-21T07:00:52;14.55;;;9.68;;
54145;SDS011;40052;49.422;7.738;2022-07-21T07:03:20;12.18;;;9.52;;
54145;SDS011;40052;49.422;7.738;2022-07-21T07:05:48;13.57;;;9.70;;
54145;SDS011;40052;49.422;7.738;2022-07-21T07:08:14;15.65;;;10.05;;
54145;SDS011;40052;49.422;7.738;2022-07-21T07:10:40;11.57;;;9.15;;
54145;SDS011;40052;49.422;7.738;2022-07-21T07:13:13;11.45;;;9.93;;
54145;SDS011;40052;49.422;7.738;2022-07-21T07:15:40;14.40;;;10.10;;
54145;SDS011;40052;49.422;7.738;2022-07-21T07:18:08;12.57;;;9.88;;
54145;SDS011;40052;49.422;7.738;2022-07-21T07:20:35;14.10;;;9.60;;
54145;SDS011;40052;49.422;7.738;2022-07-21T07:23:03;10.68;;;9.57;;
54145;SDS011;40052;49.422;7.738;2022-07-21T07:25:29;12.95;;;9.73;;
54145;SDS011;40052;49.422;7.738;2022-07-21T07:27:57;13.07;;;9.63;;
54145;SDS011;40052;49.422;7.738;2022-07-21T07:30:24;15.40;;;11.20;;
54145;SDS011;40052;49.422;7.738;2022-07-21T07:32:49;15.70;;;10.55;;
54145;SDS011;40052;49.422;7.738;2022-07-21T07:35:15;13.77;;;10.23;;
54145;SDS011;40052;49.422;7.738;2022-07-21T07:37:45;12.65;;;10.25;;
54145;SDS011;40052;49.422;7.738;2022-07-21T07:40:12;12.07;;;10.20;;
54145;SDS011;40052;49.422;7.738;2022-07-21T07:42:42;10.52;;;9.27;;
54145;SDS011;40052;49.422;7.738;2022-07-21T07:45:08;11.85;;;10.63;;
54145;SDS011;40052;49.422;7.738;2022-07-21T07:47:35;13.02;;;9.55;;
54145;SDS011;40052;49.422;7.738;2022-07-21T07:50:01;11.75;;;9.57;;
54145;SDS011;40052;49.422;7.738;2022-07-21T07:52:29;11.48;;;9.27;;
54145;SDS011;40052;49.422;7.738;2022-07-21T07:54:55;12.23;;;8.85;;
54145;SDS011;40052;49.422;7.738;2022-07-21T07:57:20;10.85;;;8.93;;
54145;SDS011;40052;49.422;7.738;2022-07-21T07:59:48;10.80;;;8.55;;
54145;SDS011;40052;49.422;7.738;2022-07-21T08:02:18;10.23;;;8.05;;
54145;SDS011;40052;49.422;7.738;2022-07-21T08:04:46;10.00;;;8.60;;
54145;SDS011;40052;49.422;7.738;2022-07-21T08:07:13;10.77;;;9.18;;
54145;SDS011;40052;49.422;7.738;2022-07-21T08:09:41;13.50;;;8.30;;
54145;SDS011;40052;49.422;7.738;2022-07-21T08:12:07;11.45;;;8.45;;
54145;SDS011;40052;49.422;7.738;2022-07-21T08:14:32;9.45;;;8.32;;
54145;SDS011;40052;49.422;7.738;2022-07-21T08:17:00;10.93;;;7.22;;
54145;SDS011;40052;49.422;7.738;2022-07-21T08:19:25;8.32;;;7.25;;
54145;SDS011;40052;49.422;7.738;2022-07-21T08:21:53;8.98;;;7.35;;
54145;SDS011;40052;49.422;7.738;2022-07-21T08:24:24;6.68;;;6.03;;
54145;SDS011;40052;49.422;7.738;2022-07-21T08:26:49;9.18;;;7.72;;
54145;SDS011;40052;49.422;7.738;2022-07-21T08:29:17;7.78;;;7.07;;
54145;SDS011;40052;49.422;7.738;2022-07-21T08:31:43;8.82;;;6.28;;
54145;SDS011;40052;49.422;7.738;2022-07-21T08:34:08;7.63;;;6.65;;
54145;SDS011;40052;49.422;7.738;2022-07-21T08:36:33;8.00;;;7.03;;
54145;SDS011;40052;49.422;7.738;2022-07-21T08:38:59;9.52;;;6.90;;
54145;SDS011;40052;49.422;7.738;2022-07-21T08:41:24;8.20;;;6.57;;
54145;SDS011;40052;49.422;7.738;2022-07-21T08:43:50;7.75;;;6.82;;
54145;SDS011;40052;49.422;7.738;2022-07-21T08:46:15;8.35;;;6.63;;
54145;SDS011;40052;49.422;7.738;2022-07-21T08:48:45;7.55;;;6.50;;
54145;SDS011;40052;49.422;7.738;2022-07-21T08:51:13;7.25;;;6.55;;
54145;SDS011;40052;49.422;7.738;2022-07-21T08:53:43;8.82;;;6.63;;
54145;SDS011;40052;49.422;7.738;2022-07-21T08:56:14;7.35;;;6.10;;
54145;SDS011;40052;49.422;7.738;2022-07-21T08:58:41;7.47;;;6.63;;
54145;SDS011;40052;49.422;7.738;2022-07-21T09:01:07;7.43;;;6.50;;
54145;SDS011;40052;49.422;7.738;2022-07-21T09:03:32;10.43;;;6.80;;
54145;SDS011;40052;49.422;7.738;2022-07-21T09:06:13;8.95;;;7.13;;
54145;SDS011;40052;49.422;7.738;2022-07-21T09:08:45;7.00;;;6.13;;
54145;SDS011;40052;49.422;7.738;2022-07-21T09:13:39;6.80;;;5.95;;
54145;SDS011;40052;49.422;7.738;2022-07-21T09:16:05;7.43;;;5.60;;
54145;SDS011;40052;49.422;7.738;2022-07-21T09:18:31;7.05;;;5.70;;
54145;SDS011;40052;49.422;7.738;2022-07-21T09:20:56;7.00;;;5.00;;
54145;SDS011;40052;49.422;7.738;2022-07-21T09:23:24;5.93;;;4.95;;
54145;SDS011;40052;49.422;7.738;2022-07-21T09:25:53;6.97;;;5.18;;
54145;SDS011;40052;49.422;7.738;2022-07-21T09:28:21;6.97;;;5.10;;
54145;SDS011;40052;49.422;7.738;2022-07-21T09:33:28;6.28;;;5.40;;
54145;SDS011;40052;49.422;7.738;2022-07-21T09:38:27;6.78;;;5.22;;
54145;SDS011;40052;49.422;7.738;2022-07-21T09:40:53;6.20;;;5.60;;
54145;SDS011;40052;49.422;7.738;2022-07-21T09:43:37;5.68;;;5.07;;
54145;SDS011;40052;49.422;7.738;2022-07-21T09:46:14;5.75;;;4.78;;
54145;SDS011;40052;49.422;7.738;2022-07-21T09:48:46;5.82;;;5.22;;
54145;SDS011;40052;49.422;7.738;2022-07-21T09:56:36;7.38;;;5.72;;
54145;SDS011;40052;49.422;7.738;2022-07-21T09:59:04;6.30;;;5.70;;
54145;SDS011;40052;49.422;7.738;2022-07-21T10:01:34;6.85;;;6.15;;
54145;SDS011;40052;49.422;7.738;2022-07-21T10:04:05;6.10;;;5.10;;
54145;SDS011;40052;49.422;7.738;2022-07-21T10:06:39;8.80;;;5.05;;
54145;SDS011;40052;49.422;7.738;2022-07-21T10:09:10;7.28;;;5.88;;
54145;SDS011;40052;49.422;7.738;2022-07-21T10:11:35;6.25;;;5.55;;
54145;SDS011;40052;49.422;7.738;2022-07-21T10:14:01;5.50;;;4.93;;
54145;SDS011;40052;49.422;7.738;2022-07-21T10:16:27;6.25;;;5.55;;
54145;SDS011;40052;49.422;7.738;2022-07-21T10:19:10;6.72;;;6.00;;
54145;SDS011;40052;49.422;7.738;2022-07-21T10:24:29;6.38;;;5.72;;
54145;SDS011;40052;49.422;7.738;2022-07-21T10:27:09;7.15;;;5.75;;
54145;SDS011;40052;49.422;7.738;2022-07-21T10:32:13;7.28;;;5.63;;
54145;SDS011;40052;49.422;7.738;2022-07-21T10:34:40;7.43;;;5.72;;
54145;SDS011;40052;49.422;7.738;2022-07-21T10:37:11;6.35;;;5.75;;
54145;SDS011;40052;49.422;7.738;2022-07-21T10:39:56;7.00;;;6.30;;
54145;SDS011;40052;49.422;7.738;2022-07-21T10:42:21;7.00;;;5.40;;
54145;SDS011;40052;49.422;7.738;2022-07-21T10:44:49;6.32;;;5.45;;
54145;SDS011;40052;49.422;7.738;2022-07-21T10:47:21;5.40;;;4.85;;
54145;SDS011;40052;49.422;7.738;2022-07-21T10:49:57;7.05;;;5.60;;
54145;SDS011;40052;49.422;7.738;2022-07-21T10:57:35;8.65;;;5.47;;
54145;SDS011;40052;49.422;7.738;2022-07-21T11:05:28;6.80;;;5.53;;
54145;SDS011;40052;49.422;7.738;2022-07-21T11:08:17;6.13;;;5.50;;
54145;SDS011;40052;49.422;7.738;2022-07-21T11:10:47;8.60;;;5.95;;
54145;SDS011;40052;49.422;7.738;2022-07-21T11:13:17;6.72;;;5.53;;
54145;SDS011;40052;49.422;7.738;2022-07-21T11:15:53;7.90;;;6.18;;
54145;SDS011;40052;49.422;7.738;2022-07-21T11:18:23;6.75;;;5.63;;
54145;SDS011;40052;49.422;7.738;2022-07-21T11:26:09;7.93;;;6.13;;
54145;SDS011;40052;49.422;7.738;2022-07-21T11:28:39;7.95;;;5.55;;
54145;SDS011;40052;49.422;7.738;2022-07-21T11:31:08;7.88;;;5.88;;
54145;SDS011;40052;49.422;7.738;2022-07-21T11:33:42;8.50;;;6.00;;
54145;SDS011;40052;49.422;7.738;2022-07-21T11:36:22;6.30;;;5.70;;
54145;SDS011;40052;49.422;7.738;2022-07-21T11:41:28;7.03;;;5.72;;
54145;SDS011;40052;49.422;7.738;2022-07-21T11:43:54;6.95;;;5.80;;
54145;SDS011;40052;49.422;7.738;2022-07-21T11:46:19;9.85;;;6.25;;
54145;SDS011;40052;49.422;7.738;2022-07-21T11:48:47;7.30;;;6.10;;
54145;SDS011;40052;49.422;7.738;2022-07-21T11:51:15;8.50;;;5.65;;
54145;SDS011;40052;49.422;7.738;2022-07-21T11:53:43;6.05;;;5.45;;
54145;SDS011;40052;49.422;7.738;2022-07-21T11:56:15;6.72;;;6.03;;
54145;SDS011;40052;49.422;7.738;2022-07-21T11:58:42;6.13;;;5.53;;
54145;SDS011;40052;49.422;7.738;2022-07-21T12:01:08;5.95;;;5.00;;
54145;SDS011;40052;49.422;7.738;2022-07-21T12:03:34;6.15;;;5.55;;
54145;SDS011;40052;49.422;7.738;2022-07-21T12:06:11;6.28;;;5.53;;
54145;SDS011;40052;49.422;7.738;2022-07-21T12:08:38;7.07;;;5.95;;
54145;SDS011;40052;49.422;7.738;2022-07-21T12:11:07;8.15;;;5.90;;
54145;SDS011;40052;49.422;7.738;2022-07-21T12:16:21;8.40;;;6.47;;
54145;SDS011;40052;49.422;7.738;2022-07-21T12:18:46;8.00;;;5.93;;
54145;SDS011;40052;49.422;7.738;2022-07-21T12:21:12;7.15;;;5.80;;
54145;SDS011;40052;49.422;7.738;2022-07-21T12:23:40;7.68;;;5.90;;
54145;SDS011;40052;49.422;7.738;2022-07-21T12:26:06;5.93;;;5.35;;
54145;SDS011;40052;49.422;7.738;2022-07-21T12:28:47;6.28;;;5.68;;
54145;SDS011;40052;49.422;7.738;2022-07-21T12:31:19;6.35;;;5.28;;
54145;SDS011;40052;49.422;7.738;2022-07-21T12:33:46;8.38;;;6.18;;
54145;SDS011;40052;49.422;7.738;2022-07-21T12:36:12;6.05;;;5.32;;
54145;SDS011;40052;49.422;7.738;2022-07-21T12:38:42;6.00;;;5.40;;
54145;SDS011;40052;49.422;7.738;2022-07-21T12:41:10;6.00;;;5.38;;
54145;SDS011;40052;49.422;7.738;2022-07-21T12:43:37;8.20;;;6.53;;
54145;SDS011;40052;49.422;7.738;2022-07-21T12:48:35;6.70;;;5.53;;
54145;SDS011;40052;49.422;7.738;2022-07-21T12:51:20;8.00;;;5.75;;
54145;SDS011;40052;49.422;7.738;2022-07-21T12:53:49;5.88;;;5.28;;
54145;SDS011;40052;49.422;7.738;2022-07-21T12:56:20;6.90;;;5.90;;
54145;SDS011;40052;49.422;7.738;2022-07-21T12:58:50;7.03;;;6.28;;
54145;SDS011;40052;49.422;7.738;2022-07-21T13:01:16;7.80;;;5.45;;
54145;SDS011;40052;49.422;7.738;2022-07-21T13:03:44;7.78;;;5.40;;
54145;SDS011;40052;49.422;7.738;2022-07-21T13:06:12;6.07;;;5.47;;
54145;SDS011;40052;49.422;7.738;2022-07-21T13:08:44;5.47;;;4.80;;
54145;SDS011;40052;49.422;7.738;2022-07-21T13:11:13;8.45;;;5.35;;
54145;SDS011;40052;49.422;7.738;2022-07-21T13:13:43;6.90;;;5.43;;
54145;SDS011;40052;49.422;7.738;2022-07-21T13:16:10;8.00;;;5.40;;
54145;SDS011;40052;49.422;7.738;2022-07-21T13:18:35;6.85;;;5.20;;
54145;SDS011;40052;49.422;7.738;2022-07-21T13:21:01;6.60;;;5.22;;
54145;SDS011;40052;49.422;7.738;2022-07-21T13:23:27;6.13;;;5.38;;
54145;SDS011;40052;49.422;7.738;2022-07-21T13:25:52;6.43;;;5.28;;
54145;SDS011;40052;49.422;7.738;2022-07-21T13:28:18;5.30;;;4.60;;
54145;SDS011;40052;49.422;7.738;2022-07-21T13:30:46;7.30;;;5.18;;
54145;SDS011;40052;49.422;7.738;2022-07-21T13:33:12;5.50;;;4.68;;
54145;SDS011;40052;49.422;7.738;2022-07-21T13:35:38;5.45;;;4.93;;
54145;SDS011;40052;49.422;7.738;2022-07-21T13:38:04;7.47;;;4.95;;
54145;SDS011;40052;49.422;7.738;2022-07-21T13:40:30;8.25;;;5.25;;
54145;SDS011;40052;49.422;7.738;2022-07-21T13:42:55;5.53;;;5.00;;
54145;SDS011;40052;49.422;7.738;2022-07-21T13:45:21;6.78;;;5.05;;
54145;SDS011;40052;49.422;7.738;2022-07-21T13:47:49;5.38;;;4.80;;
54145;SDS011;40052;49.422;7.738;2022-07-21T13:50:17;5.40;;;4.90;;
54145;SDS011;40052;49.422;7.738;2022-07-21T13:52:45;7.38;;;4.60;;
54145;SDS011;40052;49.422;7.738;2022-07-21T13:55:13;5.63;;;4.40;;
54145;SDS011;40052;49.422;7.738;2022-07-21T13:57:38;7.53;;;4.70;;
54145;SDS011;40052;49.422;7.738;2022-07-21T14:00:07;4.95;;;4.45;;
54145;SDS011;40052;49.422;7.738;2022-07-21T14:02:36;5.10;;;4.60;;
54145;SDS011;40052;49.422;7.738;2022-07-21T14:05:05;7.10;;;4.22;;
54145;SDS011;40052;49.422;7.738;2022-07-21T14:07:30;6.07;;;4.00;;
54145;SDS011;40052;49.422;7.738;2022-07-21T14:09:56;5.72;;;4.75;;
54145;SDS011;40052;49.422;7.738;2022-07-21T14:12:21;5.43;;;4.63;;
54145;SDS011;40052;49.422;7.738;2022-07-21T14:14:47;6.40;;;4.85;;
54145;SDS011;40052;49.422;7.738;2022-07-21T14:17:15;5.75;;;4.80;;
54145;SDS011;40052;49.422;7.738;2022-07-21T14:19:41;5.75;;;4.15;;
54145;SDS011;40052;49.422;7.738;2022-07-21T14:22:11;5.32;;;4.68;;
54145;SDS011;40052;49.422;7.738;2022-07-21T14:24:37;6.95;;;5.07;;
54145;SDS011;40052;49.422;7.738;2022-07-21T14:27:21;6.10;;;4.80;;
54145;SDS011;40052;49.422;7.738;2022-07-21T14:29:47;5.47;;;4.97;;
54145;SDS011;40052;49.422;7.738;2022-07-21T14:32:12;6.60;;;4.85;;
54145;SDS011;40052;49.422;7.738;2022-07-21T14:34:41;5.20;;;4.70;;
54145;SDS011;40052;49.422;7.738;2022-07-21T14:37:06;5.68;;;4.78;;
54145;SDS011;40052;49.422;7.738;2022-07-21T14:39:31;5.45;;;4.68;;
54145;SDS011;40052;49.422;7.738;2022-07-21T14:41:57;6.43;;;4.50;;
54145;SDS011;40052;49.422;7.738;2022-07-21T14:44:24;4.60;;;4.20;;
54145;SDS011;40052;49.422;7.738;2022-07-21T14:46:53;4.65;;;4.25;;
54145;SDS011;40052;49.422;7.738;2022-07-21T14:49:18;5.82;;;4.43;;
54145;SDS011;40052;49.422;7.738;2022-07-21T14:51:43;5.07;;;4.00;;
54145;SDS011;40052;49.422;7.738;2022-07-21T14:54:11;5.57;;;4.60;;
54145;SDS011;40052;49.422;7.738;2022-07-21T14:56:37;5.85;;;4.80;;
54145;SDS011;40052;49.422;7.738;2022-07-21T14:59:02;4.90;;;4.30;;
54145;SDS011;40052;49.422;7.738;2022-07-21T15:01:28;5.72;;;4.28;;
54145;SDS011;40052;49.422;7.738;2022-07-21T15:03:53;6.07;;;4.57;;
54145;SDS011;40052;49.422;7.738;2022-07-21T15:06:18;5.25;;;4.35;;
54145;SDS011;40052;49.422;7.738;2022-07-21T15:08:46;7.30;;;4.80;;
54145;SDS011;40052;49.422;7.738;2022-07-21T15:11:14;6.78;;;4.55;;
54145;SDS011;40052;49.422;7.738;2022-07-21T15:13:44;5.15;;;4.15;;
54145;SDS011;40052;49.422;7.738;2022-07-21T15:16:09;5.25;;;4.10;;
54145;SDS011;40052;49.422;7.738;2022-07-21T15:18:35;5.15;;;4.50;;
54145;SDS011;40052;49.422;7.738;2022-07-21T15:21:00;6.75;;;5.10;;